This is the latest recevied weather packets stored in our database for station/object HS1AXC-1. If no packets are shown the sender has not sent any weather packets the latest 1 day(s).
| Time | Temp. | Humidity | Pressure | Rain* | Wind** | Luminosity | Snow |
|---|---|---|---|---|---|---|---|
| 1778002573 | 35° C | 71% | 1009 hPa | - | 0 m/s | 0 W/m² | - |
| 1778001951 | 35.56° C | 70% | 1009 hPa | - | 0 m/s | 0 W/m² | - |
| 1778001329 | 35.56° C | 69% | 1009 hPa | - | 0 m/s | 0 W/m² | - |
| 1778000707 | 35.56° C | 70% | 1009 hPa | - | 0 m/s | 0 W/m² | - |
| 1778000085 | 35° C | 71% | 1009 hPa | - | 0 m/s | 0 W/m² | - |
| 1777999463 | 35.56° C | 70% | 1009 hPa | - | 0 m/s | 0 W/m² | - |
| 1777998789 | 35.56° C | 70% | 1010 hPa | - | 0 m/s | 0 W/m² | - |
| 1777998167 | 35° C | 71% | 1010 hPa | - | 0 m/s | 0 W/m² | - |
| 1777997545 | 35.56° C | 68% | 1010 hPa | - | 0 m/s | 0 W/m² | - |
| 1777996923 | 36.11° C | 67% | 1010 hPa | - | 0 m/s | 0 W/m² | - |
| 1777996301 | 35.56° C | 67% | 1010 hPa | - | 0 m/s | 0 W/m² | - |
| 1777995679 | 35° C | 68% | 1010 hPa | - | 0 m/s | 0 W/m² | - |
| 1777995057 | 35.56° C | 67% | 1010 hPa | - | 0 m/s | 0 W/m² | - |
| 1777994435 | 35° C | 68% | 1010 hPa | - | 0 m/s | 0 W/m² | - |
| 1777993813 | 35.56° C | 65% | 1010 hPa | - | 0 m/s | 0 W/m² | - |
| 1777993191 | 35.56° C | 64% | 1010 hPa | - | 0 m/s | 0 W/m² | - |
| 1777992569 | 35° C | 65% | 1010 hPa | - | 0 m/s | 0 W/m² | - |
| 1777991947 | 35.56° C | 64% | 1010 hPa | - | 0 m/s | 0 W/m² | - |
| 1777991325 | 35.56° C | 64% | 1009 hPa | - | 0 m/s | 0 W/m² | - |
| 1777990703 | 35.56° C | 62% | 1009 hPa | - | 0 m/s | 0 W/m² | - |
| 1777990081 | 35.56° C | 61% | 1009 hPa | - | 0 m/s | 0 W/m² | - |
| 1777989459 | 35° C | 63% | 1009 hPa | - | 0 m/s | 0 W/m² | - |
| 1777988837 | 36.11° C | 60% | 1009 hPa | - | 0 m/s | 0 W/m² | - |
| 1777988215 | 35.56° C | 60% | 1009 hPa | - | 0 m/s | 0 W/m² | - |
| 1777987593 | 36.11° C | 59% | 1009 hPa | - | 0 m/s | 0 W/m² | - |
* Rain since midnight (hover to see other rain measurements)
** Current wind speed in m/s (hover to see current wind gust speed)